sensor_id;sensor_type;location;lat;lon;timestamp;P1;durP1;ratioP1;P2;durP2;ratioP2
59512;SDS011;45330;51.634;5.562;2023-07-13T00:01:27;12.02;;;3.33;;
59512;SDS011;45330;51.634;5.562;2023-07-13T00:03:54;12.38;;;2.83;;
59512;SDS011;45330;51.634;5.562;2023-07-13T00:06:21;11.60;;;2.90;;
59512;SDS011;45330;51.634;5.562;2023-07-13T00:08:47;17.48;;;3.60;;
59512;SDS011;45330;51.634;5.562;2023-07-13T00:11:14;12.80;;;2.58;;
59512;SDS011;45330;51.634;5.562;2023-07-13T00:13:40;13.40;;;2.80;;
59512;SDS011;45330;51.634;5.562;2023-07-13T00:16:07;13.10;;;2.83;;
59512;SDS011;45330;51.634;5.562;2023-07-13T00:18:34;14.43;;;2.95;;
59512;SDS011;45330;51.634;5.562;2023-07-13T00:20:59;12.70;;;2.80;;
59512;SDS011;45330;51.634;5.562;2023-07-13T00:23:30;9.82;;;2.53;;
59512;SDS011;45330;51.634;5.562;2023-07-13T00:26:06;12.13;;;2.90;;
59512;SDS011;45330;51.634;5.562;2023-07-13T00:28:33;13.18;;;3.00;;
59512;SDS011;45330;51.634;5.562;2023-07-13T00:30:59;9.70;;;2.58;;
59512;SDS011;45330;51.634;5.562;2023-07-13T00:33:26;12.02;;;2.67;;
59512;SDS011;45330;51.634;5.562;2023-07-13T00:35:53;14.45;;;2.67;;
59512;SDS011;45330;51.634;5.562;2023-07-13T00:38:19;13.48;;;2.90;;
59512;SDS011;45330;51.634;5.562;2023-07-13T00:40:44;8.25;;;2.60;;
59512;SDS011;45330;51.634;5.562;2023-07-13T00:43:13;11.88;;;2.88;;
59512;SDS011;45330;51.634;5.562;2023-07-13T00:48:09;13.98;;;3.10;;
59512;SDS011;45330;51.634;5.562;2023-07-13T00:50:39;11.45;;;2.85;;
59512;SDS011;45330;51.634;5.562;2023-07-13T00:53:06;14.98;;;2.88;;
59512;SDS011;45330;51.634;5.562;2023-07-13T00:55:32;11.93;;;2.97;;
59512;SDS011;45330;51.634;5.562;2023-07-13T00:57:58;12.00;;;2.70;;
59512;SDS011;45330;51.634;5.562;2023-07-13T01:00:24;11.00;;;2.83;;
59512;SDS011;45330;51.634;5.562;2023-07-13T01:02:52;11.50;;;3.08;;
59512;SDS011;45330;51.634;5.562;2023-07-13T01:05:19;13.50;;;3.22;;
59512;SDS011;45330;51.634;5.562;2023-07-13T01:07:48;13.77;;;2.97;;
59512;SDS011;45330;51.634;5.562;2023-07-13T01:10:15;12.18;;;2.70;;
59512;SDS011;45330;51.634;5.562;2023-07-13T01:12:41;7.72;;;2.42;;
59512;SDS011;45330;51.634;5.562;2023-07-13T01:15:32;13.57;;;2.80;;
59512;SDS011;45330;51.634;5.562;2023-07-13T01:20:50;14.55;;;2.75;;
59512;SDS011;45330;51.634;5.562;2023-07-13T01:23:22;13.02;;;2.72;;
59512;SDS011;45330;51.634;5.562;2023-07-13T01:25:49;11.57;;;3.10;;
59512;SDS011;45330;51.634;5.562;2023-07-13T01:28:15;12.68;;;3.10;;
59512;SDS011;45330;51.634;5.562;2023-07-13T01:30:42;14.43;;;3.05;;
59512;SDS011;45330;51.634;5.562;2023-07-13T01:33:10;8.18;;;2.72;;
59512;SDS011;45330;51.634;5.562;2023-07-13T01:35:37;13.50;;;3.00;;
59512;SDS011;45330;51.634;5.562;2023-07-13T01:38:02;15.35;;;3.70;;
59512;SDS011;45330;51.634;5.562;2023-07-13T01:40:28;14.95;;;3.60;;
59512;SDS011;45330;51.634;5.562;2023-07-13T01:42:54;14.50;;;3.40;;
59512;SDS011;45330;51.634;5.562;2023-07-13T01:45:19;10.23;;;2.95;;
59512;SDS011;45330;51.634;5.562;2023-07-13T01:47:45;14.52;;;3.20;;
59512;SDS011;45330;51.634;5.562;2023-07-13T01:50:10;14.10;;;3.22;;
59512;SDS011;45330;51.634;5.562;2023-07-13T01:52:36;14.05;;;3.40;;
59512;SDS011;45330;51.634;5.562;2023-07-13T01:55:01;9.82;;;2.97;;
59512;SDS011;45330;51.634;5.562;2023-07-13T01:57:27;13.95;;;3.25;;
59512;SDS011;45330;51.634;5.562;2023-07-13T01:59:52;12.98;;;2.95;;
59512;SDS011;45330;51.634;5.562;2023-07-13T02:02:18;12.43;;;3.22;;
59512;SDS011;45330;51.634;5.562;2023-07-13T02:04:43;12.07;;;3.30;;
59512;SDS011;45330;51.634;5.562;2023-07-13T02:07:09;16.27;;;3.10;;
59512;SDS011;45330;51.634;5.562;2023-07-13T02:09:34;14.10;;;3.42;;
59512;SDS011;45330;51.634;5.562;2023-07-13T02:12:00;17.88;;;3.60;;
59512;SDS011;45330;51.634;5.562;2023-07-13T02:14:25;13.25;;;3.10;;
59512;SDS011;45330;51.634;5.562;2023-07-13T02:16:51;11.05;;;3.17;;
59512;SDS011;45330;51.634;5.562;2023-07-13T02:19:16;12.75;;;3.47;;
59512;SDS011;45330;51.634;5.562;2023-07-13T02:21:41;12.27;;;3.15;;
59512;SDS011;45330;51.634;5.562;2023-07-13T02:24:08;15.50;;;3.60;;
59512;SDS011;45330;51.634;5.562;2023-07-13T02:26:33;18.30;;;3.92;;
59512;SDS011;45330;51.634;5.562;2023-07-13T02:28:59;12.60;;;3.40;;
59512;SDS011;45330;51.634;5.562;2023-07-13T02:31:25;14.55;;;3.75;;
59512;SDS011;45330;51.634;5.562;2023-07-13T02:33:50;13.73;;;3.72;;
59512;SDS011;45330;51.634;5.562;2023-07-13T02:36:16;19.02;;;3.65;;
59512;SDS011;45330;51.634;5.562;2023-07-13T02:38:41;16.85;;;3.97;;
59512;SDS011;45330;51.634;5.562;2023-07-13T02:41:07;14.43;;;3.50;;
59512;SDS011;45330;51.634;5.562;2023-07-13T02:43:34;15.35;;;4.07;;
59512;SDS011;45330;51.634;5.562;2023-07-13T02:46:00;13.07;;;3.50;;
59512;SDS011;45330;51.634;5.562;2023-07-13T02:48:32;18.95;;;3.72;;
59512;SDS011;45330;51.634;5.562;2023-07-13T02:51:01;18.33;;;3.70;;
59512;SDS011;45330;51.634;5.562;2023-07-13T02:53:27;12.60;;;3.58;;
59512;SDS011;45330;51.634;5.562;2023-07-13T02:55:52;14.15;;;3.90;;
59512;SDS011;45330;51.634;5.562;2023-07-13T02:58:18;14.63;;;3.70;;
59512;SDS011;45330;51.634;5.562;2023-07-13T03:00:44;11.38;;;3.60;;
59512;SDS011;45330;51.634;5.562;2023-07-13T03:03:11;15.90;;;3.72;;
59512;SDS011;45330;51.634;5.562;2023-07-13T03:05:40;16.02;;;3.83;;
59512;SDS011;45330;51.634;5.562;2023-07-13T03:08:07;18.48;;;4.07;;
59512;SDS011;45330;51.634;5.562;2023-07-13T03:10:32;16.92;;;4.00;;
59512;SDS011;45330;51.634;5.562;2023-07-13T03:12:58;14.00;;;3.70;;
59512;SDS011;45330;51.634;5.562;2023-07-13T03:15:23;14.35;;;3.67;;
59512;SDS011;45330;51.634;5.562;2023-07-13T03:17:49;14.77;;;4.25;;
59512;SDS011;45330;51.634;5.562;2023-07-13T03:20:14;15.98;;;3.80;;
59512;SDS011;45330;51.634;5.562;2023-07-13T03:22:40;17.60;;;3.88;;
59512;SDS011;45330;51.634;5.562;2023-07-13T03:25:05;16.05;;;3.85;;
59512;SDS011;45330;51.634;5.562;2023-07-13T03:27:31;17.05;;;4.07;;
59512;SDS011;45330;51.634;5.562;2023-07-13T03:29:56;16.45;;;4.35;;
59512;SDS011;45330;51.634;5.562;2023-07-13T03:32:21;16.70;;;3.70;;
59512;SDS011;45330;51.634;5.562;2023-07-13T03:34:47;16.38;;;4.93;;
59512;SDS011;45330;51.634;5.562;2023-07-13T03:37:13;17.58;;;4.35;;
59512;SDS011;45330;51.634;5.562;2023-07-13T03:39:38;16.80;;;4.05;;
59512;SDS011;45330;51.634;5.562;2023-07-13T03:42:04;18.45;;;5.13;;
59512;SDS011;45330;51.634;5.562;2023-07-13T03:44:29;15.80;;;4.07;;
59512;SDS011;45330;51.634;5.562;2023-07-13T03:46:55;14.50;;;3.55;;
59512;SDS011;45330;51.634;5.562;2023-07-13T03:49:20;14.48;;;4.22;;
59512;SDS011;45330;51.634;5.562;2023-07-13T03:51:45;15.93;;;4.15;;
59512;SDS011;45330;51.634;5.562;2023-07-13T03:54:11;14.80;;;4.05;;
59512;SDS011;45330;51.634;5.562;2023-07-13T03:56:36;16.63;;;4.20;;
59512;SDS011;45330;51.634;5.562;2023-07-13T03:59:02;16.05;;;4.20;;
59512;SDS011;45330;51.634;5.562;2023-07-13T04:01:27;16.42;;;4.05;;
59512;SDS011;45330;51.634;5.562;2023-07-13T04:03:53;12.60;;;3.35;;
59512;SDS011;45330;51.634;5.562;2023-07-13T04:06:29;15.20;;;4.38;;
59512;SDS011;45330;51.634;5.562;2023-07-13T04:08:56;13.52;;;4.00;;
59512;SDS011;45330;51.634;5.562;2023-07-13T04:11:24;16.63;;;4.40;;
59512;SDS011;45330;51.634;5.562;2023-07-13T04:13:51;16.02;;;4.75;;
59512;SDS011;45330;51.634;5.562;2023-07-13T04:16:17;17.08;;;4.20;;
59512;SDS011;45330;51.634;5.562;2023-07-13T04:18:43;18.73;;;5.22;;
59512;SDS011;45330;51.634;5.562;2023-07-13T04:21:09;16.83;;;4.25;;
59512;SDS011;45330;51.634;5.562;2023-07-13T04:23:36;25.38;;;4.90;;
59512;SDS011;45330;51.634;5.562;2023-07-13T04:26:02;18.90;;;5.05;;
59512;SDS011;45330;51.634;5.562;2023-07-13T04:28:27;16.48;;;4.03;;
59512;SDS011;45330;51.634;5.562;2023-07-13T04:30:53;14.98;;;4.10;;
59512;SDS011;45330;51.634;5.562;2023-07-13T04:33:19;17.00;;;3.90;;
59512;SDS011;45330;51.634;5.562;2023-07-13T04:35:50;14.73;;;4.03;;
59512;SDS011;45330;51.634;5.562;2023-07-13T04:38:25;14.20;;;4.10;;
59512;SDS011;45330;51.634;5.562;2023-07-13T04:40:54;15.02;;;4.63;;
59512;SDS011;45330;51.634;5.562;2023-07-13T04:43:21;16.73;;;4.00;;
59512;SDS011;45330;51.634;5.562;2023-07-13T04:45:46;17.65;;;4.20;;
59512;SDS011;45330;51.634;5.562;2023-07-13T04:48:12;15.85;;;4.47;;
59512;SDS011;45330;51.634;5.562;2023-07-13T04:50:37;17.45;;;4.50;;
59512;SDS011;45330;51.634;5.562;2023-07-13T04:53:03;19.42;;;5.20;;
59512;SDS011;45330;51.634;5.562;2023-07-13T04:55:29;17.13;;;4.90;;
59512;SDS011;45330;51.634;5.562;2023-07-13T04:57:55;20.50;;;5.45;;
59512;SDS011;45330;51.634;5.562;2023-07-13T05:00:23;23.45;;;5.82;;
59512;SDS011;45330;51.634;5.562;2023-07-13T05:02:49;19.45;;;5.75;;
59512;SDS011;45330;51.634;5.562;2023-07-13T05:05:15;22.58;;;7.13;;
59512;SDS011;45330;51.634;5.562;2023-07-13T05:07:40;19.30;;;6.78;;
59512;SDS011;45330;51.634;5.562;2023-07-13T05:10:06;22.17;;;6.80;;
59512;SDS011;45330;51.634;5.562;2023-07-13T05:12:32;22.13;;;7.53;;
59512;SDS011;45330;51.634;5.562;2023-07-13T05:14:57;24.75;;;8.13;;
59512;SDS011;45330;51.634;5.562;2023-07-13T05:17:22;24.40;;;8.50;;
59512;SDS011;45330;51.634;5.562;2023-07-13T05:19:48;26.77;;;8.20;;
59512;SDS011;45330;51.634;5.562;2023-07-13T05:22:13;26.30;;;9.10;;
59512;SDS011;45330;51.634;5.562;2023-07-13T05:24:39;25.13;;;8.52;;
59512;SDS011;45330;51.634;5.562;2023-07-13T05:27:04;25.50;;;8.48;;
59512;SDS011;45330;51.634;5.562;2023-07-13T05:29:30;25.75;;;9.05;;
59512;SDS011;45330;51.634;5.562;2023-07-13T05:31:55;25.52;;;9.23;;
59512;SDS011;45330;51.634;5.562;2023-07-13T05:34:20;26.92;;;10.02;;
59512;SDS011;45330;51.634;5.562;2023-07-13T05:36:46;27.73;;;10.40;;
59512;SDS011;45330;51.634;5.562;2023-07-13T05:39:11;24.55;;;10.95;;
59512;SDS011;45330;51.634;5.562;2023-07-13T05:41:37;27.25;;;10.80;;
59512;SDS011;45330;51.634;5.562;2023-07-13T05:44:02;29.63;;;11.48;;
59512;SDS011;45330;51.634;5.562;2023-07-13T05:46:28;29.33;;;11.82;;
59512;SDS011;45330;51.634;5.562;2023-07-13T05:48:54;26.13;;;10.93;;
59512;SDS011;45330;51.634;5.562;2023-07-13T05:51:19;26.50;;;11.30;;
59512;SDS011;45330;51.634;5.562;2023-07-13T05:53:45;28.38;;;11.23;;
59512;SDS011;45330;51.634;5.562;2023-07-13T05:56:10;27.95;;;11.85;;
59512;SDS011;45330;51.634;5.562;2023-07-13T05:58:36;24.58;;;10.48;;
59512;SDS011;45330;51.634;5.562;2023-07-13T06:01:06;29.25;;;12.07;;
59512;SDS011;45330;51.634;5.562;2023-07-13T06:03:35;28.73;;;11.52;;
59512;SDS011;45330;51.634;5.562;2023-07-13T06:06:00;29.40;;;12.20;;
59512;SDS011;45330;51.634;5.562;2023-07-13T06:08:26;27.83;;;11.27;;
59512;SDS011;45330;51.634;5.562;2023-07-13T06:10:52;28.33;;;11.40;;
59512;SDS011;45330;51.634;5.562;2023-07-13T06:13:18;27.50;;;11.65;;
59512;SDS011;45330;51.634;5.562;2023-07-13T06:15:47;29.83;;;11.10;;
59512;SDS011;45330;51.634;5.562;2023-07-13T06:18:16;25.95;;;11.50;;
59512;SDS011;45330;51.634;5.562;2023-07-13T06:20:41;26.38;;;10.95;;
59512;SDS011;45330;51.634;5.562;2023-07-13T06:23:06;28.35;;;11.15;;
59512;SDS011;45330;51.634;5.562;2023-07-13T06:25:32;26.15;;;10.75;;
59512;SDS011;45330;51.634;5.562;2023-07-13T06:27:57;29.55;;;11.43;;
59512;SDS011;45330;51.634;5.562;2023-07-13T06:30:22;30.05;;;10.98;;
59512;SDS011;45330;51.634;5.562;2023-07-13T06:32:48;28.85;;;10.82;;
59512;SDS011;45330;51.634;5.562;2023-07-13T06:35:14;26.05;;;11.60;;
59512;SDS011;45330;51.634;5.562;2023-07-13T06:37:39;25.90;;;11.00;;
59512;SDS011;45330;51.634;5.562;2023-07-13T06:40:05;28.02;;;10.88;;
59512;SDS011;45330;51.634;5.562;2023-07-13T06:42:31;27.15;;;9.85;;
59512;SDS011;45330;51.634;5.562;2023-07-13T06:44:56;26.75;;;11.15;;
59512;SDS011;45330;51.634;5.562;2023-07-13T06:47:22;27.90;;;10.98;;
59512;SDS011;45330;51.634;5.562;2023-07-13T06:49:47;33.15;;;11.20;;
59512;SDS011;45330;51.634;5.562;2023-07-13T06:52:12;24.52;;;10.30;;
59512;SDS011;45330;51.634;5.562;2023-07-13T06:54:38;24.27;;;10.50;;
59512;SDS011;45330;51.634;5.562;2023-07-13T06:57:03;28.98;;;10.48;;
59512;SDS011;45330;51.634;5.562;2023-07-13T06:59:29;25.70;;;10.15;;
59512;SDS011;45330;51.634;5.562;2023-07-13T07:01:54;25.10;;;10.32;;
59512;SDS011;45330;51.634;5.562;2023-07-13T07:04:19;25.17;;;10.13;;
59512;SDS011;45330;51.634;5.562;2023-07-13T07:06:45;25.45;;;10.13;;
59512;SDS011;45330;51.634;5.562;2023-07-13T07:09:11;24.45;;;11.10;;
59512;SDS011;45330;51.634;5.562;2023-07-13T07:11:36;23.67;;;10.43;;
59512;SDS011;45330;51.634;5.562;2023-07-13T07:14:01;25.15;;;9.90;;
59512;SDS011;45330;51.634;5.562;2023-07-13T07:16:27;22.98;;;9.65;;
59512;SDS011;45330;51.634;5.562;2023-07-13T07:18:52;26.55;;;11.10;;
59512;SDS011;45330;51.634;5.562;2023-07-13T07:21:17;23.42;;;10.02;;
59512;SDS011;45330;51.634;5.562;2023-07-13T07:23:43;25.33;;;10.27;;
59512;SDS011;45330;51.634;5.562;2023-07-13T07:26:09;25.25;;;10.50;;
59512;SDS011;45330;51.634;5.562;2023-07-13T07:28:35;27.73;;;9.93;;
59512;SDS011;45330;51.634;5.562;2023-07-13T07:31:01;22.15;;;9.45;;
59512;SDS011;45330;51.634;5.562;2023-07-13T07:33:26;24.33;;;9.07;;
59512;SDS011;45330;51.634;5.562;2023-07-13T07:35:52;23.95;;;9.65;;
59512;SDS011;45330;51.634;5.562;2023-07-13T07:38:17;25.33;;;9.52;;
59512;SDS011;45330;51.634;5.562;2023-07-13T07:40:43;25.30;;;9.15;;
59512;SDS011;45330;51.634;5.562;2023-07-13T07:43:09;25.52;;;9.20;;
59512;SDS011;45330;51.634;5.562;2023-07-13T07:45:36;23.15;;;9.30;;
59512;SDS011;45330;51.634;5.562;2023-07-13T07:48:03;25.38;;;8.95;;
59512;SDS011;45330;51.634;5.562;2023-07-13T07:50:29;24.17;;;8.85;;
59512;SDS011;45330;51.634;5.562;2023-07-13T07:52:55;22.60;;;8.85;;
59512;SDS011;45330;51.634;5.562;2023-07-13T07:55:21;22.80;;;8.45;;
59512;SDS011;45330;51.634;5.562;2023-07-13T07:57:47;24.55;;;8.75;;
59512;SDS011;45330;51.634;5.562;2023-07-13T08:00:13;22.90;;;8.52;;
59512;SDS011;45330;51.634;5.562;2023-07-13T08:02:40;23.10;;;8.65;;
59512;SDS011;45330;51.634;5.562;2023-07-13T08:05:06;21.30;;;7.88;;
59512;SDS011;45330;51.634;5.562;2023-07-13T08:07:33;24.33;;;8.13;;
59512;SDS011;45330;51.634;5.562;2023-07-13T08:09:58;22.05;;;7.95;;
59512;SDS011;45330;51.634;5.562;2023-07-13T08:12:24;20.30;;;7.88;;
59512;SDS011;45330;51.634;5.562;2023-07-13T08:14:50;20.58;;;8.10;;
59512;SDS011;45330;51.634;5.562;2023-07-13T08:17:19;20.92;;;7.55;;
59512;SDS011;45330;51.634;5.562;2023-07-13T08:19:45;19.52;;;6.85;;
59512;SDS011;45330;51.634;5.562;2023-07-13T08:22:11;19.67;;;7.10;;
59512;SDS011;45330;51.634;5.562;2023-07-13T08:24:36;22.42;;;7.47;;
59512;SDS011;45330;51.634;5.562;2023-07-13T08:27:01;22.45;;;7.00;;
59512;SDS011;45330;51.634;5.562;2023-07-13T08:29:27;18.63;;;6.82;;
59512;SDS011;45330;51.634;5.562;2023-07-13T08:31:52;21.23;;;7.03;;
59512;SDS011;45330;51.634;5.562;2023-07-13T08:34:19;18.98;;;6.15;;
59512;SDS011;45330;51.634;5.562;2023-07-13T08:36:45;18.08;;;6.05;;
59512;SDS011;45330;51.634;5.562;2023-07-13T08:39:10;18.40;;;6.57;;
59512;SDS011;45330;51.634;5.562;2023-07-13T08:41:35;20.63;;;5.65;;
59512;SDS011;45330;51.634;5.562;2023-07-13T08:44:02;17.08;;;5.47;;
59512;SDS011;45330;51.634;5.562;2023-07-13T08:49:04;19.00;;;6.40;;
59512;SDS011;45330;51.634;5.562;2023-07-13T08:51:50;16.10;;;5.28;;
59512;SDS011;45330;51.634;5.562;2023-07-13T08:56:55;14.85;;;4.85;;
59512;SDS011;45330;51.634;5.562;2023-07-13T08:59:24;15.45;;;5.40;;
59512;SDS011;45330;51.634;5.562;2023-07-13T09:01:55;18.33;;;5.63;;
59512;SDS011;45330;51.634;5.562;2023-07-13T09:04:29;16.40;;;5.80;;
59512;SDS011;45330;51.634;5.562;2023-07-13T09:07:12;14.02;;;5.40;;
59512;SDS011;45330;51.634;5.562;2023-07-13T09:15:39;15.20;;;5.70;;
59512;SDS011;45330;51.634;5.562;2023-07-13T09:18:10;18.23;;;6.10;;
59512;SDS011;45330;51.634;5.562;2023-07-13T09:20:42;19.33;;;6.00;;
59512;SDS011;45330;51.634;5.562;2023-07-13T09:23:17;18.13;;;5.55;;
59512;SDS011;45330;51.634;5.562;2023-07-13T09:25:47;15.80;;;5.47;;
59512;SDS011;45330;51.634;5.562;2023-07-13T09:28:24;15.07;;;5.85;;
59512;SDS011;45330;51.634;5.562;2023-07-13T09:30:54;17.42;;;6.30;;
59512;SDS011;45330;51.634;5.562;2023-07-13T09:33:21;14.23;;;6.25;;
59512;SDS011;45330;51.634;5.562;2023-07-13T09:35:47;22.67;;;6.53;;
59512;SDS011;45330;51.634;5.562;2023-07-13T09:38:15;17.00;;;5.88;;
59512;SDS011;45330;51.634;5.562;2023-07-13T09:40:44;19.35;;;6.13;;
59512;SDS011;45330;51.634;5.562;2023-07-13T09:43:55;19.58;;;6.53;;
59512;SDS011;45330;51.634;5.562;2023-07-13T09:46:26;15.73;;;5.78;;
59512;SDS011;45330;51.634;5.562;2023-07-13T09:48:51;15.98;;;5.80;;
59512;SDS011;45330;51.634;5.562;2023-07-13T09:51:16;15.00;;;5.63;;
59512;SDS011;45330;51.634;5.562;2023-07-13T09:53:42;14.05;;;5.05;;
59512;SDS011;45330;51.634;5.562;2023-07-13T09:56:26;11.45;;;5.20;;
59512;SDS011;45330;51.634;5.562;2023-07-13T09:58:54;14.43;;;5.43;;
59512;SDS011;45330;51.634;5.562;2023-07-13T10:01:37;15.75;;;5.53;;
59512;SDS011;45330;51.634;5.562;2023-07-13T10:04:12;17.02;;;5.50;;
59512;SDS011;45330;51.634;5.562;2023-07-13T10:06:39;13.77;;;4.88;;
59512;SDS011;45330;51.634;5.562;2023-07-13T10:09:08;12.55;;;4.68;;
59512;SDS011;45330;51.634;5.562;2023-07-13T10:11:35;14.93;;;5.15;;
59512;SDS011;45330;51.634;5.562;2023-07-13T10:14:13;13.95;;;4.93;;
59512;SDS011;45330;51.634;5.562;2023-07-13T10:16:42;18.15;;;5.15;;
59512;SDS011;45330;51.634;5.562;2023-07-13T10:19:14;17.60;;;4.82;;
59512;SDS011;45330;51.634;5.562;2023-07-13T10:21:55;19.45;;;5.05;;
59512;SDS011;45330;51.634;5.562;2023-07-13T10:24:25;16.58;;;5.07;;
59512;SDS011;45330;51.634;5.562;2023-07-13T10:27:00;14.63;;;4.90;;
59512;SDS011;45330;51.634;5.562;2023-07-13T10:29:32;15.23;;;5.63;;
59512;SDS011;45330;51.634;5.562;2023-07-13T10:32:03;16.48;;;5.40;;
59512;SDS011;45330;51.634;5.562;2023-07-13T10:34:34;15.20;;;5.50;;
59512;SDS011;45330;51.634;5.562;2023-07-13T10:37:00;13.25;;;5.05;;
59512;SDS011;45330;51.634;5.562;2023-07-13T10:39:27;14.50;;;5.45;;
59512;SDS011;45330;51.634;5.562;2023-07-13T10:41:54;14.43;;;4.97;;
59512;SDS011;45330;51.634;5.562;2023-07-13T10:44:25;14.00;;;4.68;;
59512;SDS011;45330;51.634;5.562;2023-07-13T10:47:01;15.82;;;5.18;;
59512;SDS011;45330;51.634;5.562;2023-07-13T10:49:31;15.27;;;4.50;;
59512;SDS011;45330;51.634;5.562;2023-07-13T10:51:58;14.75;;;4.60;;
59512;SDS011;45330;51.634;5.562;2023-07-13T10:54:27;13.07;;;4.65;;
59512;SDS011;45330;51.634;5.562;2023-07-13T11:00:30;12.65;;;4.72;;
59512;SDS011;45330;51.634;5.562;2023-07-13T11:02:42;13.57;;;4.43;;
59512;SDS011;45330;51.634;5.562;2023-07-13T11:05:25;13.05;;;4.20;;
59512;SDS011;45330;51.634;5.562;2023-07-13T11:07:53;13.18;;;4.40;;
59512;SDS011;45330;51.634;5.562;2023-07-13T11:10:55;12.00;;;3.72;;
59512;SDS011;45330;51.634;5.562;2023-07-13T11:18:48;11.10;;;3.78;;
59512;SDS011;45330;51.634;5.562;2023-07-13T11:21:18;11.77;;;3.83;;
59512;SDS011;45330;51.634;5.562;2023-07-13T11:23:53;11.48;;;3.88;;
59512;SDS011;45330;51.634;5.562;2023-07-13T11:29:12;11.52;;;3.38;;
59512;SDS011;45330;51.634;5.562;2023-07-13T11:32:01;12.32;;;3.83;;
59512;SDS011;45330;51.634;5.562;2023-07-13T11:34:47;12.30;;;4.20;;
59512;SDS011;45330;51.634;5.562;2023-07-13T11:37:14;15.38;;;4.15;;
59512;SDS011;45330;51.634;5.562;2023-07-13T11:39:43;15.20;;;4.43;;
59512;SDS011;45330;51.634;5.562;2023-07-13T11:42:15;14.20;;;4.88;;
59512;SDS011;45330;51.634;5.562;2023-07-13T11:44:43;18.70;;;5.57;;
59512;SDS011;45330;51.634;5.562;2023-07-13T11:47:14;16.30;;;5.80;;
59512;SDS011;45330;51.634;5.562;2023-07-13T11:49:48;16.25;;;5.30;;
59512;SDS011;45330;51.634;5.562;2023-07-13T11:52:17;12.57;;;5.43;;
59512;SDS011;45330;51.634;5.562;2023-07-13T11:54:52;14.38;;;5.93;;
59512;SDS011;45330;51.634;5.562;2023-07-13T11:57:28;16.40;;;6.28;;
59512;SDS011;45330;51.634;5.562;2023-07-13T12:00:03;16.23;;;6.40;;
59512;SDS011;45330;51.634;5.562;2023-07-13T12:02:37;16.42;;;6.07;;
59512;SDS011;45330;51.634;5.562;2023-07-13T12:05:05;15.88;;;6.05;;
59512;SDS011;45330;51.634;5.562;2023-07-13T12:07:35;16.73;;;6.18;;
59512;SDS011;45330;51.634;5.562;2023-07-13T12:10:13;16.33;;;5.45;;
59512;SDS011;45330;51.634;5.562;2023-07-13T12:12:48;17.70;;;5.78;;
59512;SDS011;45330;51.634;5.562;2023-07-13T12:15:23;17.13;;;5.50;;
59512;SDS011;45330;51.634;5.562;2023-07-13T12:17:53;16.17;;;4.85;;
59512;SDS011;45330;51.634;5.562;2023-07-13T12:20:25;18.02;;;4.75;;
59512;SDS011;45330;51.634;5.562;2023-07-13T12:22:54;14.75;;;4.10;;
59512;SDS011;45330;51.634;5.562;2023-07-13T12:25:20;18.17;;;4.18;;
59512;SDS011;45330;51.634;5.562;2023-07-13T12:27:50;12.52;;;4.07;;
59512;SDS011;45330;51.634;5.562;2023-07-13T12:30:29;15.32;;;3.75;;
59512;SDS011;45330;51.634;5.562;2023-07-13T12:33:05;12.70;;;3.88;;
59512;SDS011;45330;51.634;5.562;2023-07-13T12:35:42;16.55;;;4.05;;
59512;SDS011;45330;51.634;5.562;2023-07-13T12:38:15;15.18;;;3.50;;
59512;SDS011;45330;51.634;5.562;2023-07-13T12:40:41;14.65;;;3.38;;
59512;SDS011;45330;51.634;5.562;2023-07-13T12:43:13;10.60;;;3.50;;
59512;SDS011;45330;51.634;5.562;2023-07-13T12:45:54;10.23;;;2.80;;
59512;SDS011;45330;51.634;5.562;2023-07-13T12:48:20;11.88;;;3.10;;
59512;SDS011;45330;51.634;5.562;2023-07-13T12:50:47;10.23;;;3.08;;
59512;SDS011;45330;51.634;5.562;2023-07-13T12:53:16;9.98;;;3.00;;
59512;SDS011;45330;51.634;5.562;2023-07-13T13:01:04;10.85;;;2.90;;
59512;SDS011;45330;51.634;5.562;2023-07-13T13:03:35;8.65;;;2.72;;
59512;SDS011;45330;51.634;5.562;2023-07-13T13:06:04;11.23;;;2.80;;
59512;SDS011;45330;51.634;5.562;2023-07-13T13:08:48;10.52;;;2.65;;
59512;SDS011;45330;51.634;5.562;2023-07-13T13:13:41;10.75;;;2.80;;
59512;SDS011;45330;51.634;5.562;2023-07-13T13:16:29;9.32;;;3.00;;
59512;SDS011;45330;51.634;5.562;2023-07-13T13:19:12;8.90;;;2.58;;
59512;SDS011;45330;51.634;5.562;2023-07-13T13:21:40;9.18;;;2.80;;
59512;SDS011;45330;51.634;5.562;2023-07-13T13:24:11;7.07;;;2.40;;
59512;SDS011;45330;51.634;5.562;2023-07-13T13:26:37;7.03;;;2.60;;
59512;SDS011;45330;51.634;5.562;2023-07-13T13:29:13;8.93;;;2.63;;
59512;SDS011;45330;51.634;5.562;2023-07-13T13:31:41;10.05;;;2.78;;
59512;SDS011;45330;51.634;5.562;2023-07-13T13:34:08;7.88;;;2.78;;
59512;SDS011;45330;51.634;5.562;2023-07-13T13:36:35;7.25;;;2.40;;
59512;SDS011;45330;51.634;5.562;2023-07-13T13:39:00;8.00;;;2.60;;
59512;SDS011;45330;51.634;5.562;2023-07-13T13:41:27;9.10;;;2.88;;
59512;SDS011;45330;51.634;5.562;2023-07-13T13:43:52;7.97;;;2.80;;
59512;SDS011;45330;51.634;5.562;2023-07-13T13:46:19;11.75;;;3.22;;
59512;SDS011;45330;51.634;5.562;2023-07-13T13:48:50;10.82;;;2.90;;
59512;SDS011;45330;51.634;5.562;2023-07-13T13:51:20;9.95;;;2.97;;
59512;SDS011;45330;51.634;5.562;2023-07-13T13:53:48;13.45;;;3.22;;
59512;SDS011;45330;51.634;5.562;2023-07-13T13:56:14;9.93;;;2.97;;
59512;SDS011;45330;51.634;5.562;2023-07-13T13:58:42;8.85;;;3.00;;
59512;SDS011;45330;51.634;5.562;2023-07-13T14:01:17;22.75;;;3.65;;
59512;SDS011;45330;51.634;5.562;2023-07-13T14:03:46;13.52;;;3.10;;
59512;SDS011;45330;51.634;5.562;2023-07-13T14:06:14;7.90;;;3.13;;
59512;SDS011;45330;51.634;5.562;2023-07-13T14:08:40;9.85;;;2.80;;
59512;SDS011;45330;51.634;5.562;2023-07-13T14:11:07;11.07;;;2.80;;
59512;SDS011;45330;51.634;5.562;2023-07-13T14:13:49;9.90;;;2.90;;
59512;SDS011;45330;51.634;5.562;2023-07-13T14:16:29;8.75;;;2.78;;
59512;SDS011;45330;51.634;5.562;2023-07-13T14:18:57;10.77;;;2.78;;
59512;SDS011;45330;51.634;5.562;2023-07-13T14:21:25;7.03;;;2.63;;
59512;SDS011;45330;51.634;5.562;2023-07-13T14:23:52;11.60;;;3.22;;
59512;SDS011;45330;51.634;5.562;2023-07-13T14:26:21;10.38;;;2.97;;
59512;SDS011;45330;51.634;5.562;2023-07-13T14:28:50;9.63;;;2.70;;
59512;SDS011;45330;51.634;5.562;2023-07-13T14:31:18;9.15;;;3.05;;
59512;SDS011;45330;51.634;5.562;2023-07-13T14:33:44;9.05;;;2.50;;
59512;SDS011;45330;51.634;5.562;2023-07-13T14:39:22;7.38;;;2.58;;
59512;SDS011;45330;51.634;5.562;2023-07-13T14:41:49;11.18;;;2.60;;
59512;SDS011;45330;51.634;5.562;2023-07-13T14:44:20;4.95;;;2.40;;
59512;SDS011;45330;51.634;5.562;2023-07-13T14:46:49;8.80;;;2.72;;
59512;SDS011;45330;51.634;5.562;2023-07-13T14:52:15;7.32;;;2.45;;
59512;SDS011;45330;51.634;5.562;2023-07-13T14:54:43;9.18;;;2.95;;
59512;SDS011;45330;51.634;5.562;2023-07-13T14:57:13;7.80;;;2.65;;
59512;SDS011;45330;51.634;5.562;2023-07-13T14:59:46;9.73;;;2.63;;
59512;SDS011;45330;51.634;5.562;2023-07-13T15:02:25;8.82;;;2.72;;
59512;SDS011;45330;51.634;5.562;2023-07-13T15:04:54;9.55;;;2.80;;
59512;SDS011;45330;51.634;5.562;2023-07-13T15:07:20;6.82;;;2.65;;
59512;SDS011;45330;51.634;5.562;2023-07-13T15:09:46;9.90;;;2.75;;
59512;SDS011;45330;51.634;5.562;2023-07-13T15:12:12;11.52;;;2.65;;
59512;SDS011;45330;51.634;5.562;2023-07-13T15:14:38;5.57;;;2.45;;
59512;SDS011;45330;51.634;5.562;2023-07-13T15:17:04;5.85;;;2.30;;
59512;SDS011;45330;51.634;5.562;2023-07-13T15:19:30;8.43;;;2.50;;
59512;SDS011;45330;51.634;5.562;2023-07-13T15:21:56;8.07;;;2.53;;
59512;SDS011;45330;51.634;5.562;2023-07-13T15:24:22;9.68;;;2.60;;